Time;durP1;ratioP1;P1;durP2;ratioP2;P2;SDS_P1;SDS_P2;PMS_P1;PMS_P2;Temp;Humidity;BMP_temperature;BMP_pressure;BME280_temperature;BME280_humidity;BME280_pressure;Samples;Min_cycle;Max_cycle;Signal;HPM_P1;HPM_P2
2022/05/13 00:01:51;;;;;;;;;;;21.20;49.20;;;;;;475631;249;2137;-40
2022/05/13 00:03:52;;;;;;;;;;;21.20;49.10;;;;;;475902;249;1061;-40
2022/05/13 00:05:53;;;;;;;;;;;21.20;49.20;;;;;;475997;249;1351;-40
2022/05/13 00:07:55;;;;;;;;;;;21.20;49.30;;;;;;476084;249;1184;-40
2022/05/13 00:10:00;;;;;;;;;;;21.10;49.30;;;;;;475689;251;1334;-40
2022/05/13 00:12:01;;;;;;;;;;;21.10;49.40;;;;;;475642;250;2451;-41
2022/05/13 00:14:02;;;;;;;;;;;21.10;49.30;;;;;;476116;249;1056;-40
2022/05/13 00:16:04;;;;;;;;;;;21.20;49.30;;;;;;476071;249;1327;-40
2022/05/13 00:18:05;;;;;;;;;;;21.20;49.40;;;;;;475738;250;1170;-40
2022/05/13 00:20:07;;;;;;;;;;;21.30;65.10;;;;;;475664;250;1189;-40
2022/05/13 00:22:08;;;;;;;;;;;21.10;49.30;;;;;;475719;249;2189;-40
2022/05/13 00:24:09;;;;;;;;;;;21.20;49.50;;;;;;475878;249;1311;-40
2022/05/13 00:26:11;;;;;;;;;;;21.20;49.50;;;;;;475807;249;1223;-40
2022/05/13 00:28:13;;;;;;;;;;;21.30;62.50;;;;;;475877;249;1218;-40
2022/05/13 00:30:14;;;;;;;;;;;21.20;70.10;;;;;;475664;250;1274;-40
2022/05/13 00:32:15;;;;;;;;;;;21.30;68.40;;;;;;475736;250;1199;-40
2022/05/13 00:34:16;;;;;;;;;;;21.20;72.80;;;;;;475862;249;1192;-40
2022/05/13 00:36:18;;;;;;;;;;;21.20;69.80;;;;;;475872;249;1287;-40
2022/05/13 00:38:19;;;;;;;;;;;21.30;72.00;;;;;;475771;249;1185;-40
2022/05/13 00:40:20;;;;;;;;;;;21.20;71.00;;;;;;475816;249;1310;-40
2022/05/13 00:42:24;;;;;;;;;;;21.20;73.50;;;;;;475609;251;2207;-41
2022/05/13 00:44:24;;;;;;;;;;;21.30;73.80;;;;;;475590;250;1854;-40
2022/05/13 00:46:26;;;;;;;;;;;21.20;75.30;;;;;;475604;249;1191;-40
2022/05/13 00:48:27;;;;;;;;;;;21.30;77.60;;;;;;475493;251;2047;-40
2022/05/13 00:50:28;;;;;;;;;;;21.10;80.20;;;;;;475658;250;1288;-40
2022/05/13 00:52:32;;;;;;;;;;;;;;;;;;475973;249;1222;-40
2022/05/13 00:54:34;;;;;;;;;;;;;;;;;;475705;250;1275;-40
2022/05/13 00:56:35;;;;;;;;;;;21.20;48.90;;;;;;475614;251;1317;-40
2022/05/13 00:58:37;;;;;;;;;;;21.20;49.10;;;;;;475595;251;1307;-40
2022/05/13 01:00:38;;;;;;;;;;;21.10;49.20;;;;;;475692;249;1347;-40
2022/05/13 01:02:43;;;;;;;;;;;21.10;49.30;;;;;;475916;250;2204;-40
2022/05/13 01:04:41;;;;;;;;;;;21.10;49.30;;;;;;475576;250;2101;-40
2022/05/13 01:06:42;;;;;;;;;;;21.10;49.20;;;;;;475850;249;1463;-40
2022/05/13 01:08:43;;;;;;;;;;;21.10;49.30;;;;;;475628;250;1439;-40
2022/05/13 01:10:45;;;;;;;;;;;21.10;49.30;;;;;;475781;250;1389;-40
2022/05/13 01:12:49;;;;;;;;;;;21.10;49.30;;;;;;475615;250;1334;-40
2022/05/13 01:14:48;;;;;;;;;;;21.10;49.30;;;;;;475542;251;2317;-40
2022/05/13 01:19:09;;;;;;;;;;;21.10;49.40;;;;;;475864;250;1287;-40
2022/05/13 01:21:10;;;;;;;;;;;21.10;49.30;;;;;;475610;249;2141;-40
2022/05/13 01:23:11;;;;;;;;;;;21.10;49.30;;;;;;475645;251;1593;-40
2022/05/13 01:25:13;;;;;;;;;;;21.10;49.30;;;;;;475850;249;1266;-40
2022/05/13 01:27:14;;;;;;;;;;;21.10;49.40;;;;;;475745;249;1340;-41
2022/05/13 01:29:15;;;;;;;;;;;21.00;49.50;;;;;;475624;250;1287;-41
2022/05/13 01:31:17;;;;;;;;;;;21.10;49.40;;;;;;475719;249;1212;-40
2022/05/13 01:33:18;;;;;;;;;;;21.10;49.40;;;;;;475760;249;1292;-40
2022/05/13 01:35:19;;;;;;;;;;;21.10;49.30;;;;;;475622;251;1219;-40
2022/05/13 01:37:21;;;;;;;;;;;21.10;49.30;;;;;;475607;249;1219;-40
2022/05/13 01:39:22;;;;;;;;;;;21.10;49.30;;;;;;475728;249;1266;-40
2022/05/13 01:41:23;;;;;;;;;;;21.10;49.40;;;;;;475624;251;2196;-40
2022/05/13 01:43:25;;;;;;;;;;;21.10;49.50;;;;;;475778;249;1047;-40
2022/05/13 01:45:26;;;;;;;;;;;21.10;49.40;;;;;;475958;249;1018;-40
2022/05/13 01:47:28;;;;;;;;;;;21.10;49.40;;;;;;475967;249;1054;-40
2022/05/13 01:49:29;;;;;;;;;;;21.10;49.40;;;;;;476102;249;2327;-40
2022/05/13 01:51:30;;;;;;;;;;;21.10;49.40;;;;;;475731;249;1222;-40
2022/05/13 01:53:31;;;;;;;;;;;21.10;49.30;;;;;;475783;249;1218;-41
2022/05/13 01:55:33;;;;;;;;;;;21.10;49.30;;;;;;475645;250;1178;-40
2022/05/13 01:57:34;;;;;;;;;;;21.10;49.30;;;;;;475637;251;1091;-40
2022/05/13 01:59:35;;;;;;;;;;;21.10;49.40;;;;;;476093;249;1119;-40
2022/05/13 02:01:36;;;;;;;;;;;21.10;49.40;;;;;;475672;250;2200;-40
2022/05/13 02:03:47;;;;;;;;;;;21.10;49.40;;;;;;475553;251;1669;-40
2022/05/13 02:05:48;;;;;;;;;;;21.10;49.40;;;;;;475591;249;1346;-40
2022/05/13 02:07:49;;;;;;;;;;;21.10;49.40;;;;;;475783;249;1200;-40
2022/05/13 02:09:51;;;;;;;;;;;21.10;49.30;;;;;;475705;250;1699;-40
2022/05/13 02:11:52;;;;;;;;;;;21.10;49.30;;;;;;475730;249;1232;-40
2022/05/13 02:13:54;;;;;;;;;;;21.10;49.30;;;;;;475763;249;1183;-40
2022/05/13 02:15:55;;;;;;;;;;;21.10;49.30;;;;;;475490;250;1211;-40
2022/05/13 02:17:56;;;;;;;;;;;21.10;49.30;;;;;;475540;249;1383;-40
2022/05/13 02:19:57;;;;;;;;;;;21.10;49.30;;;;;;475750;249;1244;-40
2022/05/13 02:21:59;;;;;;;;;;;21.10;49.40;;;;;;475516;250;2208;-40
2022/05/13 02:24:00;;;;;;;;;;;21.10;49.40;;;;;;475628;250;1149;-40
2022/05/13 02:26:01;;;;;;;;;;;21.10;49.40;;;;;;475600;251;1239;-40
2022/05/13 02:28:03;;;;;;;;;;;21.10;49.40;;;;;;475588;251;1213;-40
2022/05/13 02:30:04;;;;;;;;;;;21.10;49.40;;;;;;475690;249;1198;-40
2022/05/13 02:32:05;;;;;;;;;;;21.10;49.30;;;;;;475593;251;1535;-40
2022/05/13 02:34:07;;;;;;;;;;;21.10;49.30;;;;;;475457;251;1168;-40
2022/05/13 02:36:08;;;;;;;;;;;21.10;49.40;;;;;;475550;249;1520;-40
2022/05/13 02:38:09;;;;;;;;;;;21.10;49.40;;;;;;475541;250;1244;-40
2022/05/13 02:40:11;;;;;;;;;;;21.10;49.50;;;;;;475602;249;1234;-40
2022/05/13 02:42:12;;;;;;;;;;;21.00;49.50;;;;;;475525;251;2281;-40
2022/05/13 02:44:14;;;;;;;;;;;21.00;49.50;;;;;;475711;249;1266;-40
2022/05/13 02:46:15;;;;;;;;;;;21.10;49.50;;;;;;475544;249;1258;-40
2022/05/13 02:48:16;;;;;;;;;;;21.10;49.40;;;;;;475561;251;1288;-40
2022/05/13 02:50:21;;;;;;;;;;;21.10;49.40;;;;;;475633;250;1314;-40
2022/05/13 02:52:22;;;;;;;;;;;21.10;49.50;;;;;;475786;249;1165;-40
2022/05/13 02:54:23;;;;;;;;;;;21.00;49.50;;;;;;475618;250;1174;-41
2022/05/13 02:56:25;;;;;;;;;;;21.00;49.50;;;;;;475850;249;1235;-40
2022/05/13 02:58:26;;;;;;;;;;;21.10;49.60;;;;;;475735;249;1269;-40
2022/05/13 03:00:27;;;;;;;;;;;21.10;49.50;;;;;;475610;250;1265;-40
2022/05/13 03:02:28;;;;;;;;;;;21.00;49.50;;;;;;475714;249;2129;-40
2022/05/13 03:04:30;;;;;;;;;;;21.10;49.50;;;;;;475689;249;1045;-40
2022/05/13 03:06:31;;;;;;;;;;;21.10;49.40;;;;;;475494;249;1146;-40
2022/05/13 03:08:33;;;;;;;;;;;21.10;49.40;;;;;;475574;251;1073;-40
2022/05/13 03:10:35;;;;;;;;;;;21.10;49.50;;;;;;475661;250;1279;-40
2022/05/13 03:12:35;;;;;;;;;;;21.00;49.50;;;;;;475512;250;2341;-40
2022/05/13 03:14:37;;;;;;;;;;;21.10;49.50;;;;;;475709;249;1342;-40
2022/05/13 03:16:38;;;;;;;;;;;21.00;49.50;;;;;;475579;251;1240;-41
2022/05/13 03:18:39;;;;;;;;;;;21.00;49.60;;;;;;475713;250;1218;-40
2022/05/13 03:20:41;;;;;;;;;;;21.00;49.60;;;;;;475586;251;1341;-40
2022/05/13 03:22:42;;;;;;;;;;;21.00;49.50;;;;;;475647;250;2204;-40
2022/05/13 03:24:43;;;;;;;;;;;21.10;49.50;;;;;;475683;249;1328;-40
2022/05/13 03:26:45;;;;;;;;;;;21.10;49.50;;;;;;475677;249;1226;-40
2022/05/13 03:28:46;;;;;;;;;;;21.00;49.50;;;;;;475709;250;1298;-40
2022/05/13 03:30:49;;;;;;;;;;;21.10;49.50;;;;;;475640;251;1112;-40
2022/05/13 03:32:49;;;;;;;;;;;21.10;49.60;;;;;;475369;251;2084;-40
2022/05/13 03:34:50;;;;;;;;;;;21.00;49.50;;;;;;475590;250;1309;-40
2022/05/13 03:36:51;;;;;;;;;;;21.00;49.50;;;;;;475804;249;1233;-40
2022/05/13 03:38:53;;;;;;;;;;;21.10;49.50;;;;;;475629;250;1152;-40
2022/05/13 03:40:54;;;;;;;;;;;21.10;49.50;;;;;;475739;249;1553;-40
2022/05/13 03:42:55;;;;;;;;;;;21.00;49.50;;;;;;475695;249;2129;-40
2022/05/13 03:44:56;;;;;;;;;;;21.00;49.50;;;;;;475691;249;1178;-40
2022/05/13 03:46:58;;;;;;;;;;;21.00;49.60;;;;;;475580;250;1256;-40
2022/05/13 03:49:00;;;;;;;;;;;21.00;49.60;;;;;;476044;249;2453;-40
2022/05/13 03:51:00;;;;;;;;;;;21.00;49.70;;;;;;475557;250;1684;-40
2022/05/13 03:53:02;;;;;;;;;;;21.00;49.60;;;;;;475676;249;1379;-40
2022/05/13 03:55:04;;;;;;;;;;;21.00;49.60;;;;;;475942;249;1165;-40
2022/05/13 03:57:06;;;;;;;;;;;21.00;49.50;;;;;;475500;250;1210;-40
2022/05/13 03:59:06;;;;;;;;;;;21.00;49.60;;;;;;475531;250;2173;-40
2022/05/13 04:01:08;;;;;;;;;;;21.00;49.60;;;;;;475545;249;1266;-41
2022/05/13 04:03:09;;;;;;;;;;;21.00;49.60;;;;;;475706;249;2140;-41
2022/05/13 04:09:48;;;;;;;;;;;21.00;49.60;;;;;;475608;250;1325;-40
2022/05/13 04:16:46;;;;;;;;;;;21.00;49.60;;;;;;459592;258;1358;-40
2022/05/13 04:18:49;;;;;;;;;;;21.00;49.60;;;;;;467971;251;1285;-40
2022/05/13 04:20:49;;;;;;;;;;;21.10;49.60;;;;;;475522;249;2039;-40
2022/05/13 04:22:50;;;;;;;;;;;21.00;49.70;;;;;;475498;250;2208;-40
2022/05/13 04:24:52;;;;;;;;;;;21.00;49.50;;;;;;475685;249;1174;-40
2022/05/13 04:26:53;;;;;;;;;;;21.10;49.50;;;;;;475562;249;1262;-40
2022/05/13 04:28:54;;;;;;;;;;;21.10;49.50;;;;;;475474;249;1266;-40
2022/05/13 04:30:55;;;;;;;;;;;21.10;49.50;;;;;;475632;249;1221;-40
2022/05/13 04:32:57;;;;;;;;;;;21.10;49.60;;;;;;475428;249;1505;-40
2022/05/13 04:34:58;;;;;;;;;;;21.00;49.60;;;;;;475392;250;1235;-41
2022/05/13 04:36:59;;;;;;;;;;;21.00;49.50;;;;;;475525;249;1187;-40
2022/05/13 04:39:01;;;;;;;;;;;21.10;49.60;;;;;;475534;250;1417;-41
2022/05/13 04:42:49;;;;;;;;;;;21.10;49.60;;;;;;475501;249;1323;-40
2022/05/13 04:43:06;;;;;;;;;;;21.10;49.50;;;;;;474003;251;2193;-40
2022/05/13 04:45:05;;;;;;;;;;;21.00;49.50;;;;;;475309;251;1383;-40
2022/05/13 04:48:15;;;;;;;;;;;21.10;49.60;;;;;;475303;251;1180;-40
2022/05/13 04:49:08;;;;;;;;;;;21.00;49.60;;;;;;474065;250;1428;-40
2022/05/13 04:51:10;;;;;;;;;;;21.10;49.50;;;;;;475482;249;1257;-40
2022/05/13 04:53:11;;;;;;;;;;;21.10;49.50;;;;;;475482;250;2148;-40
2022/05/13 04:55:12;;;;;;;;;;;21.10;49.50;;;;;;475490;251;1278;-40
2022/05/13 04:57:13;;;;;;;;;;;21.10;49.50;;;;;;475606;249;1211;-40
2022/05/13 04:59:15;;;;;;;;;;;21.10;50.10;;;;;;475613;250;1281;-40
2022/05/13 05:01:16;;;;;;;;;;;21.20;52.60;;;;;;475633;249;1569;-40
2022/05/13 05:03:19;;;;;;;;;;;;;;;;;;475400;249;2203;-40
2022/05/13 05:05:20;;;;;;;;;;;21.50;48.30;;;;;;475408;251;1171;-40
2022/05/13 05:07:21;;;;;;;;;;;21.10;49.60;;;;;;475583;249;1246;-40
2022/05/13 05:09:24;;;;;;;;;;;21.10;49.60;;;;;;475354;250;1310;-40
2022/05/13 05:11:25;;;;;;;;;;;21.00;49.60;;;;;;475352;250;2331;-40
2022/05/13 05:13:26;;;;;;;;;;;21.00;49.60;;;;;;475515;249;1228;-40
2022/05/13 05:15:27;;;;;;;;;;;21.10;49.50;;;;;;475424;250;1219;-41
2022/05/13 05:17:29;;;;;;;;;;;21.10;49.50;;;;;;475615;249;1303;-40
2022/05/13 05:19:30;;;;;;;;;;;21.10;49.50;;;;;;475267;249;1248;-40
2022/05/13 05:21:31;;;;;;;;;;;21.10;49.50;;;;;;475272;250;1181;-40
2022/05/13 05:23:33;;;;;;;;;;;21.10;49.50;;;;;;475387;250;2157;-40
2022/05/13 05:25:34;;;;;;;;;;;21.10;49.50;;;;;;475440;249;1182;-40
2022/05/13 05:27:36;;;;;;;;;;;21.00;49.60;;;;;;475355;249;1467;-40
2022/05/13 05:29:37;;;;;;;;;;;21.10;49.60;;;;;;475433;249;1219;-40
2022/05/13 05:31:39;;;;;;;;;;;21.10;49.40;;;;;;475460;249;1191;-40
2022/05/13 05:33:40;;;;;;;;;;;21.00;49.50;;;;;;475289;250;1430;-41
2022/05/13 05:35:41;;;;;;;;;;;21.10;49.50;;;;;;475135;250;1436;-40
2022/05/13 05:37:43;;;;;;;;;;;21.10;49.40;;;;;;475356;250;1193;-40
2022/05/13 05:39:44;;;;;;;;;;;21.10;49.40;;;;;;475287;250;1299;-40
2022/05/13 05:41:46;;;;;;;;;;;21.00;49.50;;;;;;475412;249;1206;-40
2022/05/13 05:43:47;;;;;;;;;;;21.00;49.60;;;;;;475472;250;2196;-40
2022/05/13 05:45:49;;;;;;;;;;;21.10;49.60;;;;;;475318;250;1250;-40
2022/05/13 05:47:50;;;;;;;;;;;21.10;49.60;;;;;;475387;249;1185;-40
2022/05/13 05:49:51;;;;;;;;;;;21.10;49.60;;;;;;475225;250;1225;-40
2022/05/13 05:51:53;;;;;;;;;;;21.10;49.50;;;;;;475265;250;1266;-40
2022/05/13 05:58:33;;;;;;;;;;;21.10;49.40;;;;;;475380;250;1171;-40
2022/05/13 06:00:34;;;;;;;;;;;21.10;49.40;;;;;;475274;251;1189;-40
2022/05/13 06:02:36;;;;;;;;;;;21.10;49.40;;;;;;475280;250;2196;-40
2022/05/13 06:04:37;;;;;;;;;;;21.20;49.30;;;;;;475111;249;1532;-40
2022/05/13 06:06:38;;;;;;;;;;;21.10;49.30;;;;;;475103;249;1224;-40
2022/05/13 06:08:40;;;;;;;;;;;21.10;49.40;;;;;;475211;250;1365;-40
2022/05/13 06:10:41;;;;;;;;;;;21.10;49.40;;;;;;475302;249;1360;-40
2022/05/13 06:12:43;;;;;;;;;;;21.10;49.40;;;;;;475342;249;1162;-40
2022/05/13 06:14:44;;;;;;;;;;;21.10;49.50;;;;;;475186;250;1260;-40
2022/05/13 06:16:46;;;;;;;;;;;21.10;49.50;;;;;;475168;249;1261;-40
2022/05/13 06:18:47;;;;;;;;;;;21.10;49.40;;;;;;475134;251;2374;-40
2022/05/13 06:20:48;;;;;;;;;;;21.10;49.60;;;;;;475051;250;1466;-41
2022/05/13 06:22:50;;;;;;;;;;;21.10;49.60;;;;;;474981;250;2201;-40
2022/05/13 06:24:51;;;;;;;;;;;21.10;49.60;;;;;;475285;250;1056;-41
2022/05/13 06:26:52;;;;;;;;;;;21.10;49.60;;;;;;475186;249;1095;-41
2022/05/13 06:28:54;;;;;;;;;;;21.10;49.60;;;;;;475195;249;1323;-40
2022/05/13 06:30:55;;;;;;;;;;;21.10;49.70;;;;;;475240;249;1219;-40
2022/05/13 06:32:56;;;;;;;;;;;21.10;49.70;;;;;;475270;249;1214;-40
2022/05/13 06:34:57;;;;;;;;;;;21.10;49.70;;;;;;475158;249;1396;-40
2022/05/13 06:36:59;;;;;;;;;;;21.10;49.70;;;;;;474991;251;1223;-40
2022/05/13 06:39:00;;;;;;;;;;;21.10;49.70;;;;;;474981;250;1247;-40
2022/05/13 06:41:02;;;;;;;;;;;21.20;49.70;;;;;;474868;249;1383;-40
2022/05/13 06:43:03;;;;;;;;;;;21.20;49.70;;;;;;475069;250;2208;-40
2022/05/13 06:45:04;;;;;;;;;;;21.10;49.70;;;;;;474935;250;1769;-41
2022/05/13 06:47:05;;;;;;;;;;;21.20;49.80;;;;;;475037;250;1248;-40
2022/05/13 06:49:07;;;;;;;;;;;21.10;49.80;;;;;;475075;249;1379;-40
2022/05/13 06:51:08;;;;;;;;;;;21.10;49.90;;;;;;474943;250;1241;-40
2022/05/13 06:53:09;;;;;;;;;;;21.10;49.80;;;;;;475041;250;1294;-40
2022/05/13 06:55:11;;;;;;;;;;;21.10;50.00;;;;;;475018;249;1169;-40
2022/05/13 06:57:12;;;;;;;;;;;21.10;50.00;;;;;;474901;250;1536;-40
2022/05/13 06:59:13;;;;;;;;;;;21.20;50.00;;;;;;475006;250;1360;-40
2022/05/13 07:01:15;;;;;;;;;;;21.20;50.00;;;;;;474994;249;1238;-40
2022/05/13 07:03:16;;;;;;;;;;;21.20;50.00;;;;;;475058;251;2189;-40
2022/05/13 07:05:17;;;;;;;;;;;21.20;50.10;;;;;;474991;249;1248;-40
2022/05/13 07:07:19;;;;;;;;;;;21.20;50.00;;;;;;475110;250;1374;-40
2022/05/13 07:09:20;;;;;;;;;;;21.20;50.10;;;;;;474871;251;1385;-40
2022/05/13 07:11:22;;;;;;;;;;;21.20;50.30;;;;;;475004;249;1273;-40
2022/05/13 07:13:23;;;;;;;;;;;21.20;50.20;;;;;;475480;249;1093;-40
2022/05/13 07:15:24;;;;;;;;;;;21.20;50.20;;;;;;475025;250;1143;-40
2022/05/13 07:17:26;;;;;;;;;;;21.20;50.20;;;;;;475191;249;1220;-40
2022/05/13 07:19:27;;;;;;;;;;;21.20;50.20;;;;;;474879;249;1073;-40
2022/05/13 07:21:28;;;;;;;;;;;21.20;50.20;;;;;;474823;250;1240;-40
2022/05/13 07:23:30;;;;;;;;;;;21.20;50.10;;;;;;475497;249;2208;-40
2022/05/13 07:25:31;;;;;;;;;;;21.30;50.20;;;;;;475016;250;1140;-40
2022/05/13 07:27:33;;;;;;;;;;;21.30;50.20;;;;;;475368;250;1059;-40
2022/05/13 07:29:34;;;;;;;;;;;21.30;50.20;;;;;;474957;249;1176;-40
2022/05/13 07:31:35;;;;;;;;;;;21.30;50.20;;;;;;474966;249;1257;-40
2022/05/13 07:33:37;;;;;;;;;;;21.30;50.10;;;;;;474842;249;1300;-40
2022/05/13 07:35:38;;;;;;;;;;;21.40;50.20;;;;;;474598;250;1604;-40
2022/05/13 07:37:39;;;;;;;;;;;21.40;50.10;;;;;;474870;250;1151;-40
2022/05/13 07:42:00;;;;;;;;;;;21.50;50.00;;;;;;475061;250;1434;-40
2022/05/13 07:44:02;;;;;;;;;;;21.40;50.10;;;;;;474892;249;2253;-40
2022/05/13 07:46:03;;;;;;;;;;;21.40;50.10;;;;;;475227;249;1209;-40
2022/05/13 07:48:04;;;;;;;;;;;21.50;50.10;;;;;;475025;251;1177;-40
2022/05/13 07:50:06;;;;;;;;;;;21.60;50.10;;;;;;474993;250;1142;-40
2022/05/13 07:52:07;;;;;;;;;;;21.70;49.90;;;;;;475515;249;1141;-40
2022/05/13 07:54:09;;;;;;;;;;;21.70;50.00;;;;;;475064;251;1261;-40
2022/05/13 07:56:11;;;;;;;;;;;21.70;50.00;;;;;;474930;249;1188;-40
2022/05/13 07:58:11;;;;;;;;;;;21.70;50.00;;;;;;475056;250;2116;-40
2022/05/13 08:00:25;;;;;;;;;;;21.70;50.00;;;;;;474761;251;1107;-40
2022/05/13 08:02:26;;;;;;;;;;;21.70;50.10;;;;;;474746;250;1221;-40
2022/05/13 08:04:28;;;;;;;;;;;21.80;50.00;;;;;;474987;249;2188;-40
2022/05/13 08:06:29;;;;;;;;;;;21.80;50.00;;;;;;475009;249;1282;-40
2022/05/13 08:08:30;;;;;;;;;;;21.80;50.00;;;;;;475101;249;1239;-40
2022/05/13 08:10:32;;;;;;;;;;;21.80;50.00;;;;;;474801;250;1352;-40
2022/05/13 08:12:34;;;;;;;;;;;21.70;50.10;;;;;;475218;250;1224;-40
2022/05/13 08:14:34;;;;;;;;;;;21.80;50.10;;;;;;475172;250;2251;-40
2022/05/13 08:16:36;;;;;;;;;;;21.80;50.20;;;;;;475135;251;1083;-40
2022/05/13 08:18:37;;;;;;;;;;;21.70;50.20;;;;;;475675;249;1150;-40
2022/05/13 08:20:38;;;;;;;;;;;21.70;50.10;;;;;;475518;249;1531;-40
2022/05/13 08:22:40;;;;;;;;;;;21.70;50.20;;;;;;474850;249;1278;-40
2022/05/13 08:24:41;;;;;;;;;;;21.70;50.10;;;;;;474940;249;2188;-41
2022/05/13 08:26:42;;;;;;;;;;;21.80;50.20;;;;;;474900;249;1172;-40
2022/05/13 08:28:44;;;;;;;;;;;21.80;50.20;;;;;;474876;251;1345;-40
2022/05/13 08:30:45;;;;;;;;;;;21.80;50.20;;;;;;474866;249;1326;-40
2022/05/13 08:32:47;;;;;;;;;;;21.80;50.30;;;;;;474838;250;1197;-40
2022/05/13 08:34:48;;;;;;;;;;;21.80;50.30;;;;;;474962;249;1137;-40
2022/05/13 08:36:50;;;;;;;;;;;21.80;50.20;;;;;;474881;251;1290;-40
2022/05/13 08:38:51;;;;;;;;;;;21.80;50.30;;;;;;474997;250;2091;-40
2022/05/13 08:40:52;;;;;;;;;;;21.80;50.20;;;;;;474952;249;1293;-40
2022/05/13 08:42:54;;;;;;;;;;;21.80;50.40;;;;;;475001;251;1269;-40
2022/05/13 08:44:55;;;;;;;;;;;21.80;50.20;;;;;;475183;250;2223;-40
2022/05/13 08:46:56;;;;;;;;;;;21.80;50.20;;;;;;474710;250;1320;-40
2022/05/13 08:48:58;;;;;;;;;;;21.90;50.20;;;;;;475143;249;1309;-40
2022/05/13 08:50:59;;;;;;;;;;;21.90;50.10;;;;;;474756;250;1416;-40
2022/05/13 08:53:07;;;;;;;;;;;21.90;50.20;;;;;;474720;250;1176;-40
2022/05/13 08:55:08;;;;;;;;;;;21.90;50.30;;;;;;474580;249;1100;-40
2022/05/13 08:57:09;;;;;;;;;;;21.90;50.30;;;;;;474540;249;1774;-40
2022/05/13 08:59:11;;;;;;;;;;;22.00;50.20;;;;;;474711;249;1110;-40
2022/05/13 09:01:12;;;;;;;;;;;22.00;50.10;;;;;;474689;249;1146;-40
2022/05/13 09:03:13;;;;;;;;;;;22.00;50.10;;;;;;474685;250;1316;-40
2022/05/13 09:05:15;;;;;;;;;;;21.90;50.20;;;;;;474698;249;2188;-40
2022/05/13 09:07:16;;;;;;;;;;;22.00;50.20;;;;;;474673;250;1102;-40
2022/05/13 09:09:17;;;;;;;;;;;22.00;50.30;;;;;;474661;249;1293;-40
2022/05/13 09:11:19;;;;;;;;;;;22.00;50.30;;;;;;475001;250;1192;-40
2022/05/13 09:13:20;;;;;;;;;;;22.00;50.30;;;;;;475480;250;1119;-40
2022/05/13 09:15:21;;;;;;;;;;;22.00;50.30;;;;;;475503;250;1230;-40
2022/05/13 09:17:23;;;;;;;;;;;22.00;50.30;;;;;;475112;251;1458;-40
2022/05/13 09:19:24;;;;;;;;;;;22.00;50.30;;;;;;474752;251;1262;-40
2022/05/13 09:21:25;;;;;;;;;;;22.00;50.50;;;;;;474680;249;1365;-40
2022/05/13 09:23:26;;;;;;;;;;;22.00;50.40;;;;;;474587;250;1320;-40
2022/05/13 09:25:28;;;;;;;;;;;22.00;50.40;;;;;;474708;249;2188;-40
2022/05/13 09:27:29;;;;;;;;;;;22.10;50.40;;;;;;474670;249;1290;-40
2022/05/13 09:29:30;;;;;;;;;;;22.10;50.40;;;;;;474716;249;1298;-40
2022/05/13 09:31:32;;;;;;;;;;;22.10;50.20;;;;;;474626;250;1176;-40
2022/05/13 09:33:33;;;;;;;;;;;22.20;50.20;;;;;;474644;249;1175;-40
2022/05/13 09:35:35;;;;;;;;;;;22.10;50.30;;;;;;474650;249;1090;-40
2022/05/13 09:37:36;;;;;;;;;;;22.10;50.40;;;;;;474680;249;1104;-40
2022/05/13 09:39:37;;;;;;;;;;;22.10;50.30;;;;;;474720;249;1289;-40
2022/05/13 09:41:39;;;;;;;;;;;22.00;50.40;;;;;;474629;250;1369;-40
2022/05/13 09:43:40;;;;;;;;;;;22.00;50.50;;;;;;474702;251;1117;-40
2022/05/13 09:45:41;;;;;;;;;;;22.00;50.60;;;;;;474680;249;2188;-40
2022/05/13 09:47:43;;;;;;;;;;;22.00;50.60;;;;;;474832;249;1409;-40
2022/05/13 09:49:46;;;;;;;;;;;22.00;50.60;;;;;;474812;249;1174;-40
2022/05/13 09:51:46;;;;;;;;;;;22.00;50.70;;;;;;474660;251;2145;-40
2022/05/13 09:53:47;;;;;;;;;;;22.00;50.80;;;;;;474809;250;1304;-40
2022/05/13 09:55:48;;;;;;;;;;;21.90;50.90;;;;;;474825;249;1473;-40
2022/05/13 09:57:49;;;;;;;;;;;22.00;50.90;;;;;;474893;251;1247;-40
2022/05/13 09:59:51;;;;;;;;;;;22.00;50.80;;;;;;474709;251;1259;-40
2022/05/13 10:01:52;;;;;;;;;;;22.00;50.80;;;;;;474801;249;1405;-41
2022/05/13 10:03:53;;;;;;;;;;;22.00;50.70;;;;;;474744;250;1341;-41
2022/05/13 10:05:55;;;;;;;;;;;22.00;50.80;;;;;;474714;250;2187;-40
2022/05/13 10:07:56;;;;;;;;;;;22.00;50.90;;;;;;474753;249;1161;-40
2022/05/13 10:14:36;;;;;;;;;;;22.00;51.00;;;;;;474735;250;1276;-40
2022/05/13 10:16:37;;;;;;;;;;;21.90;50.90;;;;;;474814;249;1206;-40
2022/05/13 10:18:38;;;;;;;;;;;22.00;51.10;;;;;;475388;249;1171;-40
2022/05/13 10:20:40;;;;;;;;;;;21.90;51.00;;;;;;475099;251;1104;-40
2022/05/13 10:22:41;;;;;;;;;;;21.90;51.10;;;;;;475114;251;1117;-40
2022/05/13 10:24:43;;;;;;;;;;;21.90;51.10;;;;;;475393;249;2192;-40
2022/05/13 10:26:45;;;;;;;;;;;22.00;51.10;;;;;;474949;249;1248;-40
2022/05/13 10:28:45;;;;;;;;;;;22.00;51.10;;;;;;475276;249;2119;-40
2022/05/13 10:30:47;;;;;;;;;;;22.00;51.10;;;;;;474891;251;1248;-40
2022/05/13 10:32:48;;;;;;;;;;;22.00;51.20;;;;;;475519;249;1261;-40
2022/05/13 10:34:50;;;;;;;;;;;22.00;51.10;;;;;;474693;249;1170;-40
2022/05/13 10:36:51;;;;;;;;;;;22.00;51.00;;;;;;474791;250;1339;-40
2022/05/13 10:38:53;;;;;;;;;;;22.00;51.10;;;;;;475275;249;1167;-40
2022/05/13 10:40:54;;;;;;;;;;;22.00;51.10;;;;;;474653;251;1886;-40
2022/05/13 10:42:55;;;;;;;;;;;22.00;51.10;;;;;;474788;250;1162;-40
2022/05/13 10:44:57;;;;;;;;;;;22.00;51.20;;;;;;474814;250;2220;-40
2022/05/13 10:46:58;;;;;;;;;;;22.00;51.20;;;;;;474827;251;2349;-40
2022/05/13 10:48:59;;;;;;;;;;;22.00;51.30;;;;;;475261;250;1143;-40
2022/05/13 10:51:01;;;;;;;;;;;21.90;51.20;;;;;;475022;249;1232;-40
2022/05/13 10:53:02;;;;;;;;;;;22.00;51.30;;;;;;474800;250;1158;-40
2022/05/13 10:55:04;;;;;;;;;;;21.90;51.30;;;;;;474904;251;1148;-41
2022/05/13 10:57:06;;;;;;;;;;;21.90;51.40;;;;;;474921;250;1099;-40
2022/05/13 10:59:06;;;;;;;;;;;21.90;51.30;;;;;;474814;249;2092;-41
2022/05/13 11:01:08;;;;;;;;;;;22.00;51.40;;;;;;474860;249;1362;-40
2022/05/13 11:03:13;;;;;;;;;;;22.00;51.30;;;;;;474876;251;1263;-40
2022/05/13 11:05:10;;;;;;;;;;;22.00;51.20;;;;;;474387;251;2217;-40
2022/05/13 11:07:12;;;;;;;;;;;22.00;51.30;;;;;;474644;249;1310;-40
2022/05/13 11:09:13;;;;;;;;;;;22.00;51.30;;;;;;474752;249;1346;-40
2022/05/13 11:11:14;;;;;;;;;;;22.10;51.20;;;;;;474806;250;1332;-40
2022/05/13 11:13:16;;;;;;;;;;;22.00;51.20;;;;;;474887;249;1366;-41
2022/05/13 11:15:17;;;;;;;;;;;22.00;51.20;;;;;;474795;249;1562;-41
2022/05/13 11:17:20;;;;;;;;;;;22.00;51.20;;;;;;474802;249;1342;-40
2022/05/13 11:19:20;;;;;;;;;;;22.00;51.20;;;;;;475012;251;2214;-40
2022/05/13 11:21:21;;;;;;;;;;;22.00;51.20;;;;;;475293;249;1197;-40
2022/05/13 11:23:22;;;;;;;;;;;22.00;51.10;;;;;;475547;250;1052;-40
2022/05/13 11:27:43;;;;;;;;;;;22.00;51.30;;;;;;475128;250;1031;-40
2022/05/13 11:29:44;;;;;;;;;;;22.10;51.20;;;;;;474762;251;1312;-40
2022/05/13 11:31:47;;;;;;;;;;;22.00;51.30;;;;;;474721;250;1092;-40
2022/05/13 11:33:47;;;;;;;;;;;22.00;51.40;;;;;;475179;249;2177;-40
2022/05/13 11:35:48;;;;;;;;;;;22.00;51.30;;;;;;474637;250;1095;-40
2022/05/13 11:37:49;;;;;;;;;;;22.00;51.50;;;;;;474592;250;1301;-40
2022/05/13 11:39:51;;;;;;;;;;;22.00;51.40;;;;;;474772;251;1267;-41
2022/05/13 11:41:52;;;;;;;;;;;22.00;51.50;;;;;;475142;250;1126;-40
2022/05/13 11:43:53;;;;;;;;;;;22.00;51.50;;;;;;474948;250;1066;-40
2022/05/13 11:45:56;;;;;;;;;;;22.00;51.60;;;;;;474966;250;2192;-40
2022/05/13 11:47:57;;;;;;;;;;;22.00;51.50;;;;;;475433;249;1099;-40
2022/05/13 11:49:58;;;;;;;;;;;22.00;51.60;;;;;;475052;250;1202;-40
2022/05/13 11:52:00;;;;;;;;;;;22.00;51.60;;;;;;474826;251;1422;-40
2022/05/13 11:54:01;;;;;;;;;;;22.00;51.60;;;;;;474865;249;1349;-40
2022/05/13 11:56:02;;;;;;;;;;;22.00;51.50;;;;;;474755;250;1124;-40
2022/05/13 11:58:04;;;;;;;;;;;22.00;51.40;;;;;;475268;249;1275;-40
2022/05/13 12:00:05;;;;;;;;;;;22.00;51.50;;;;;;474834;250;1263;-40
2022/05/13 12:02:06;;;;;;;;;;;22.00;51.60;;;;;;474793;250;1154;-40
2022/05/13 12:04:08;;;;;;;;;;;22.00;51.60;;;;;;474909;250;1347;-40
2022/05/13 12:06:10;;;;;;;;;;;22.00;51.60;;;;;;474819;250;2196;-40
2022/05/13 12:08:11;;;;;;;;;;;22.00;51.60;;;;;;475378;249;1041;-40
2022/05/13 12:10:12;;;;;;;;;;;22.00;51.60;;;;;;474886;250;2297;-40
2022/05/13 12:12:13;;;;;;;;;;;22.00;51.60;;;;;;474832;249;1038;-40
2022/05/13 12:14:15;;;;;;;;;;;22.00;51.70;;;;;;474213;249;1135;-40
2022/05/13 12:16:16;;;;;;;;;;;22.00;51.70;;;;;;474937;249;1220;-40
2022/05/13 12:18:17;;;;;;;;;;;22.00;51.70;;;;;;474205;249;1310;-40
2022/05/13 12:20:18;;;;;;;;;;;22.00;51.70;;;;;;474898;250;1298;-40
2022/05/13 12:22:20;;;;;;;;;;;22.00;51.70;;;;;;474746;251;1358;-40
2022/05/13 12:24:21;;;;;;;;;;;22.00;51.80;;;;;;475114;249;1067;-40